createdAt,value
2018-12-27T00:04:28.592Z,7.30
2018-12-27T00:09:31.425Z,7.27
2018-12-27T00:14:34.257Z,7.20
2018-12-27T00:19:56.610Z,7.22
2018-12-27T00:25:20.497Z,7.18
2018-12-27T00:30:43.126Z,5.69
2018-12-27T00:42:04.856Z,7.16
2018-12-27T00:47:07.702Z,6.17
2018-12-27T00:52:30.396Z,7.05
2018-12-27T00:57:52.723Z,7.06
2018-12-27T01:03:27.786Z,4.85
2018-12-27T01:08:20.064Z,6.82
2018-12-27T01:24:47.414Z,6.84
2018-12-27T01:30:09.735Z,6.71
2018-12-27T01:35:31.911Z,5.79
2018-12-27T01:40:54.221Z,6.68
2018-12-27T01:46:09.388Z,6.71
2018-12-27T02:03:15.878Z,4.86
2018-12-27T02:08:38.406Z,5.76
2018-12-27T02:13:41.239Z,6.43
2018-12-27T02:19:03.704Z,6.42
2018-12-27T02:24:26.047Z,4.23
2018-12-27T02:29:28.856Z,6.69
2018-12-27T02:34:31.691Z,6.82
2018-12-27T02:39:53.878Z,6.91
2018-12-27T02:45:10.699Z,6.93
2018-12-27T02:50:33.026Z,6.92
2018-12-27T03:01:33.478Z,5.35
2018-12-27T03:06:55.707Z,4.69
2018-12-27T03:18:07.835Z,7.04
2018-12-27T03:23:30.122Z,6.98
2018-12-27T03:28:32.997Z,7.04
2018-12-27T03:33:35.642Z,7.05
2018-12-27T03:38:57.981Z,7.10
2018-12-27T03:44:13.863Z,7.16
2018-12-27T03:49:36.171Z,7.09
2018-12-27T03:54:58.867Z,7.16
2018-12-27T04:00:21.203Z,7.21
2018-12-27T04:05:43.585Z,7.26
2018-12-27T04:11:05.952Z,7.28
2018-12-27T04:16:28.112Z,7.26
2018-12-27T04:21:50.423Z,7.23
2018-12-27T04:27:12.589Z,7.24
2018-12-27T04:32:35.109Z,7.30
2018-12-27T04:37:57.506Z,5.77
2018-12-27T04:43:20.535Z,7.23
2018-12-27T04:48:35.609Z,7.26
2018-12-27T04:53:57.906Z,7.33
2018-12-27T04:59:20.386Z,7.29
2018-12-27T05:04:42.656Z,7.33
2018-12-27T05:15:49.824Z,5.60
2018-12-27T05:21:01.619Z,6.59
2018-12-27T05:26:04.455Z,7.42
2018-12-27T05:43:22.485Z,7.49
2018-12-27T05:48:38.207Z,7.51
2018-12-27T05:54:00.523Z,7.52
2018-12-27T05:59:22.820Z,7.51
2018-12-27T06:04:45.583Z,5.88
2018-12-27T06:09:48.504Z,7.63
2018-12-27T06:14:51.397Z,7.63
2018-12-27T06:25:57.526Z,5.38
2018-12-27T06:31:40.410Z,7.56
2018-12-27T06:36:44.636Z,7.58
2018-12-27T06:42:08.045Z,7.58
2018-12-27T06:47:25.345Z,6.86
2018-12-27T06:52:30.352Z,7.69
2018-12-27T06:57:54.263Z,7.74
2018-12-27T07:03:17.606Z,7.75
2018-12-27T07:08:40.707Z,7.71
2018-12-27T07:14:03.892Z,7.72
2018-12-27T07:19:26.976Z,7.76
2018-12-27T07:24:52.766Z,7.77
2018-12-27T07:29:57.058Z,7.75
2018-12-27T07:35:20.106Z,7.63
2018-12-27T07:40:44.198Z,7.57
2018-12-27T07:46:00.933Z,7.63
2018-12-27T07:51:43.858Z,7.57
2018-12-27T07:57:25.097Z,7.60
2018-12-27T08:02:35.108Z,7.56
2018-12-27T08:07:58.529Z,5.21
2018-12-27T08:13:56.320Z,7.64
2018-12-27T08:24:38.658Z,7.74
2018-12-27T08:35:26.598Z,7.74
2018-12-27T08:40:31.597Z,7.84
2018-12-27T08:45:37.249Z,7.86
2018-12-27T08:51:00.808Z,7.96
2018-12-27T08:56:24.360Z,7.19
2018-12-27T09:01:50.691Z,7.95
2018-12-27T09:07:14.093Z,8.10
2018-12-27T09:18:49.228Z,8.30
2018-12-27T09:35:26.131Z,8.49
2018-12-27T09:40:44.240Z,8.53
2018-12-27T09:46:00.445Z,8.52
2018-12-27T09:51:04.550Z,8.50
2018-12-27T09:56:08.929Z,8.61
2018-12-27T10:01:15.858Z,8.65
2018-12-27T10:06:39.825Z,8.68
2018-12-27T10:12:03.464Z,8.69
2018-12-27T10:17:26.933Z,8.88
2018-12-27T10:22:32.633Z,8.74
2018-12-27T10:28:15.780Z,8.81
2018-12-27T10:33:38.882Z,9.02
2018-12-27T10:38:43.280Z,8.97
2018-12-27T10:44:06.743Z,9.15
2018-12-27T10:49:29.601Z,9.12
2018-12-27T10:54:53.226Z,9.08
2018-12-27T11:00:17.101Z,8.47
2018-12-27T11:05:40.517Z,9.29
2018-12-27T11:11:04.462Z,9.39
2018-12-27T11:16:10.635Z,9.46
2018-12-27T11:21:14.512Z,9.61
2018-12-27T11:37:47.418Z,8.13
2018-12-27T11:43:10.988Z,9.58
2018-12-27T11:48:27.073Z,8.67
2018-12-27T11:53:50.535Z,8.25
2018-12-27T11:59:13.705Z,9.55
2018-12-27T12:04:36.806Z,9.46
2018-12-27T12:15:42.804Z,8.54
2018-12-27T12:21:09.277Z,9.44
2018-12-27T12:26:13.507Z,8.02
2018-12-27T12:31:38.052Z,9.52
2018-12-27T12:37:01.332Z,9.57
2018-12-27T12:47:47.268Z,9.75
2018-12-27T12:53:11.437Z,9.83
2018-12-27T12:58:35.001Z,9.94
2018-12-27T13:03:58.476Z,9.35
2018-12-27T13:09:22.763Z,10.03
2018-12-27T13:14:46.008Z,7.79
2018-12-27T13:20:09.315Z,9.70
2018-12-27T13:25:32.612Z,9.64
2018-12-27T13:30:55.831Z,9.60
2018-12-27T13:36:25.301Z,9.55
2018-12-27T13:41:44.707Z,9.40
2018-12-27T13:47:00.696Z,9.36
2018-12-27T13:58:07.019Z,9.35
2018-12-27T14:03:11.548Z,9.41
2018-12-27T14:08:35.165Z,9.36
2018-12-27T14:13:58.930Z,9.38
2018-12-27T14:19:22.855Z,8.61
2018-12-27T14:24:48.786Z,7.82
2018-12-27T14:30:13.355Z,9.21
2018-12-27T14:35:38.189Z,9.26
2018-12-27T14:46:14.848Z,9.20
2018-12-27T14:51:41.181Z,9.17
2018-12-27T14:57:04.450Z,9.16
2018-12-27T15:02:28.235Z,8.15
2018-12-27T15:07:53.714Z,9.04
2018-12-27T15:18:50.111Z,8.91
2018-12-27T15:34:47.597Z,8.88
2018-12-27T15:40:10.840Z,8.96
2018-12-27T15:45:27.170Z,7.92
2018-12-27T15:50:50.975Z,8.91
2018-12-27T15:56:17.168Z,7.54
2018-12-27T16:01:40.591Z,8.91
2018-12-27T16:07:04.200Z,8.23
2018-12-27T16:12:28.315Z,8.98
2018-12-27T16:18:11.229Z,7.90
2018-12-27T16:23:35.532Z,9.14
2018-12-27T16:28:58.705Z,8.32
2018-12-27T16:34:23.519Z,9.09
2018-12-27T16:39:46.767Z,8.82
2018-12-27T16:45:03.895Z,9.10
2018-12-27T16:50:27.843Z,9.14
2018-12-27T16:55:51.771Z,9.15
2018-12-27T17:01:17.380Z,9.14
2018-12-27T17:06:40.911Z,9.11
2018-12-27T17:12:04.466Z,9.03
2018-12-27T17:17:30.010Z,9.04
2018-12-27T17:22:53.490Z,9.05
2018-12-27T17:28:17.237Z,9.11
2018-12-27T17:33:40.312Z,9.11
2018-12-27T17:39:24.434Z,9.07
2018-12-27T17:44:48.280Z,8.36
2018-12-27T17:50:31.366Z,9.14
2018-12-27T17:55:55.587Z,9.09
2018-12-27T18:01:19.606Z,8.97
2018-12-27T18:12:12.357Z,7.45
2018-12-27T18:17:35.773Z,8.93
2018-12-27T18:23:21.104Z,7.26
2018-12-27T18:28:25.282Z,8.90
2018-12-27T18:33:49.096Z,8.84
2018-12-27T18:39:13.066Z,8.91
2018-12-27T18:44:38.063Z,8.99
2018-12-27T18:50:01.817Z,7.30
2018-12-27T18:55:25.323Z,9.07
2018-12-27T19:00:48.489Z,8.98
2018-12-27T19:06:12.354Z,9.01
2018-12-27T19:12:14.224Z,9.08
2018-12-27T19:18:30.392Z,7.65
2018-12-27T19:23:41.533Z,9.13
2018-12-27T19:34:45.546Z,9.14
2018-12-27T19:40:11.800Z,9.03
2018-12-27T19:45:16.158Z,9.10
2018-12-27T19:50:39.634Z,9.11
2018-12-27T19:55:44.470Z,9.11
2018-12-27T20:00:49.160Z,9.12
2018-12-27T20:06:12.991Z,9.13
2018-12-27T20:11:36.378Z,9.08
2018-12-27T20:17:00.123Z,9.09
2018-12-27T20:22:23.851Z,9.08
2018-12-27T20:27:47.308Z,9.14
2018-12-27T20:33:11.565Z,7.07
2018-12-27T20:38:35.328Z,9.18
2018-12-27T20:43:58.626Z,7.77
2018-12-27T20:49:15.999Z,9.12
2018-12-27T20:54:39.679Z,9.08
2018-12-27T20:59:44.331Z,9.13
2018-12-27T21:04:48.696Z,9.10
2018-12-27T21:09:52.865Z,9.08
2018-12-27T21:15:16.624Z,9.12
2018-12-27T21:20:40.743Z,9.10
2018-12-27T21:26:04.199Z,9.11
2018-12-27T21:31:08.767Z,9.17
2018-12-27T21:36:13.102Z,9.17
2018-12-27T21:41:36.597Z,9.11
2018-12-27T21:46:53.598Z,9.11
2018-12-27T21:52:17.174Z,7.61
2018-12-27T21:57:40.597Z,9.09
2018-12-27T22:02:46.009Z,9.11
2018-12-27T22:08:09.642Z,9.11
2018-12-27T22:13:33.320Z,9.08
2018-12-27T22:24:39.702Z,8.98
2018-12-27T22:30:22.283Z,7.58
2018-12-27T22:35:45.710Z,8.90
2018-12-27T22:46:45.360Z,8.91
2018-12-27T22:52:09.565Z,8.92
2018-12-27T22:57:53.878Z,8.97
2018-12-27T23:03:17.332Z,8.87
2018-12-27T23:08:43.213Z,7.46
2018-12-27T23:13:47.459Z,7.34
2018-12-27T23:19:11.312Z,8.99
2018-12-27T23:24:35.057Z,9.03
2018-12-27T23:29:58.748Z,7.62
2018-12-27T23:35:03.885Z,9.06
2018-12-27T23:40:08.271Z,9.06
2018-12-27T23:45:25.030Z,9.08
2018-12-27T23:50:48.286Z,9.05
2018-12-27T23:56:14.787Z,8.98
